createdAt,value
2023-07-23T00:01:24.547Z,5.70
2023-07-23T00:03:51.305Z,8.60
2023-07-23T00:06:18.310Z,4.25
2023-07-23T00:08:44.962Z,5.03
2023-07-23T00:11:11.610Z,3.80
2023-07-23T00:13:38.453Z,4.35
2023-07-23T00:16:05.777Z,4.05
2023-07-23T00:18:32.322Z,3.97
2023-07-23T00:20:58.902Z,3.97
2023-07-23T00:23:25.555Z,3.70
2023-07-23T00:25:52.167Z,3.55
2023-07-23T00:28:18.765Z,3.95
2023-07-23T00:30:45.333Z,3.58
2023-07-23T00:33:12.124Z,3.25
2023-07-23T00:35:39.321Z,3.65
2023-07-23T00:38:05.909Z,3.67
2023-07-23T00:40:32.562Z,3.63
2023-07-23T00:42:59.101Z,3.78
2023-07-23T00:45:25.900Z,3.42
2023-07-23T00:47:52.611Z,3.72
2023-07-23T00:50:19.819Z,3.50
2023-07-23T00:52:46.523Z,3.30
2023-07-23T00:55:13.182Z,3.67
2023-07-23T00:57:39.936Z,3.03
2023-07-23T01:00:09.076Z,3.58
2023-07-23T01:02:35.709Z,3.50
2023-07-23T01:05:03.650Z,3.60
2023-07-23T01:07:32.330Z,3.25
2023-07-23T01:10:00.375Z,3.40
2023-07-23T01:12:28.141Z,3.17
2023-07-23T01:14:54.775Z,4.15
2023-07-23T01:17:21.953Z,3.38
2023-07-23T01:20:00.743Z,3.63
2023-07-23T01:22:27.297Z,3.53
2023-07-23T01:24:53.889Z,3.42
2023-07-23T01:27:20.477Z,3.38
2023-07-23T01:29:47.127Z,3.22
2023-07-23T01:32:13.644Z,3.20
2023-07-23T01:34:40.248Z,3.58
2023-07-23T01:37:07.051Z,3.35
2023-07-23T01:39:33.894Z,3.70
2023-07-23T01:42:01.068Z,2.97
2023-07-23T01:44:27.698Z,3.20
2023-07-23T01:46:54.427Z,3.30
2023-07-23T01:49:21.194Z,3.50
2023-07-23T01:51:47.769Z,2.97
2023-07-23T01:54:14.315Z,3.20
2023-07-23T01:56:40.909Z,3.53
2023-07-23T01:59:08.490Z,3.33
2023-07-23T02:01:35.325Z,3.15
2023-07-23T02:04:01.896Z,3.28
2023-07-23T02:06:28.523Z,3.20
2023-07-23T02:08:55.179Z,2.90
2023-07-23T02:11:21.726Z,2.95
2023-07-23T02:13:48.367Z,3.13
2023-07-23T02:16:21.895Z,3.15
2023-07-23T02:18:49.057Z,3.42
2023-07-23T02:21:15.793Z,2.90
2023-07-23T02:23:45.961Z,3.00
2023-07-23T02:26:12.783Z,2.80
2023-07-23T02:28:44.687Z,3.00
2023-07-23T02:31:11.684Z,3.15
2023-07-23T02:33:38.280Z,3.17
2023-07-23T02:36:05.139Z,3.22
2023-07-23T02:38:31.811Z,3.35
2023-07-23T02:40:59.934Z,3.00
2023-07-23T02:43:26.541Z,3.10
2023-07-23T02:45:53.146Z,3.25
2023-07-23T02:48:19.801Z,3.22
2023-07-23T02:50:46.351Z,3.20
2023-07-23T02:53:12.952Z,3.05
2023-07-23T02:55:39.574Z,3.40
2023-07-23T02:58:06.181Z,3.25
2023-07-23T03:00:32.751Z,3.08
2023-07-23T03:02:59.449Z,3.13
2023-07-23T03:05:26.391Z,3.00
2023-07-23T03:07:54.017Z,3.20
2023-07-23T03:10:20.932Z,2.90
2023-07-23T03:12:47.545Z,3.10
2023-07-23T03:15:14.176Z,3.15
2023-07-23T03:17:40.841Z,2.92
2023-07-23T03:20:09.801Z,3.15
2023-07-23T03:25:02.984Z,2.80
2023-07-23T03:27:29.536Z,3.03
2023-07-23T03:29:56.148Z,2.50
2023-07-23T03:32:22.852Z,2.25
2023-07-23T03:34:49.448Z,2.60
2023-07-23T03:37:16.393Z,2.80
2023-07-23T03:39:42.953Z,2.30
2023-07-23T03:42:09.595Z,2.53
2023-07-23T03:44:36.178Z,2.83
2023-07-23T03:47:10.860Z,2.80
2023-07-23T03:49:37.679Z,2.13
2023-07-23T03:52:05.731Z,2.33
2023-07-23T03:54:33.206Z,2.20
2023-07-23T03:56:59.886Z,1.85
2023-07-23T03:59:31.667Z,2.10
2023-07-23T04:01:58.243Z,1.90
2023-07-23T04:04:24.837Z,2.20
2023-07-23T04:06:51.638Z,1.95
2023-07-23T04:09:19.043Z,2.13
2023-07-23T04:11:45.761Z,2.13
2023-07-23T04:14:12.521Z,1.73
2023-07-23T04:16:39.446Z,1.67
2023-07-23T04:19:06.073Z,2.90
2023-07-23T04:21:32.657Z,2.03
2023-07-23T04:24:00.124Z,2.20
2023-07-23T04:26:28.517Z,2.17
2023-07-23T04:28:55.614Z,2.28
2023-07-23T04:31:22.251Z,1.98
2023-07-23T04:33:49.950Z,1.80
2023-07-23T04:36:16.830Z,1.73
2023-07-23T04:38:44.542Z,2.20
2023-07-23T04:41:12.043Z,2.65
2023-07-23T04:43:39.809Z,1.95
2023-07-23T04:46:06.521Z,1.95
2023-07-23T04:48:34.292Z,2.00
2023-07-23T04:51:03.609Z,2.03
2023-07-23T04:53:30.472Z,2.40
2023-07-23T04:55:58.157Z,1.80
2023-07-23T04:58:26.597Z,2.33
2023-07-23T05:00:53.814Z,2.05
2023-07-23T05:03:21.020Z,1.88
2023-07-23T05:05:50.596Z,2.00
2023-07-23T05:08:20.781Z,2.15
2023-07-23T05:10:48.317Z,2.20
2023-07-23T05:13:15.897Z,2.10
2023-07-23T05:15:42.744Z,2.22
2023-07-23T05:18:09.842Z,2.10
2023-07-23T05:20:36.571Z,2.42
2023-07-23T05:23:03.190Z,2.13
2023-07-23T05:25:29.722Z,2.10
2023-07-23T05:27:56.337Z,2.40
2023-07-23T05:30:23.213Z,1.98
2023-07-23T05:32:50.078Z,1.73
2023-07-23T05:35:16.833Z,2.13
2023-07-23T05:37:43.439Z,2.25
2023-07-23T05:40:10.209Z,2.33
2023-07-23T05:42:36.843Z,2.20
2023-07-23T05:45:04.382Z,2.00
2023-07-23T05:47:31.171Z,1.52
2023-07-23T05:49:58.018Z,2.00
2023-07-23T05:52:25.335Z,1.73
2023-07-23T05:54:52.045Z,2.40
2023-07-23T05:57:18.702Z,2.25
2023-07-23T05:59:45.299Z,2.13
2023-07-23T06:02:12.031Z,1.90
2023-07-23T06:04:40.596Z,2.03
2023-07-23T06:07:07.362Z,2.20
2023-07-23T06:09:34.033Z,2.33
2023-07-23T06:12:00.684Z,1.90
2023-07-23T06:14:27.506Z,1.70
2023-07-23T06:16:54.616Z,1.73
2023-07-23T06:19:21.680Z,2.00
2023-07-23T06:21:48.252Z,2.10
2023-07-23T06:24:14.847Z,2.13
2023-07-23T06:26:41.784Z,2.35
2023-07-23T06:29:08.943Z,1.73
2023-07-23T06:31:35.564Z,2.30
2023-07-23T06:34:02.162Z,2.25
2023-07-23T06:36:28.745Z,2.10
2023-07-23T06:38:55.296Z,2.13
2023-07-23T06:41:21.928Z,2.25
2023-07-23T06:43:48.516Z,2.80
2023-07-23T06:46:19.169Z,2.28
2023-07-23T06:48:45.859Z,2.30
2023-07-23T06:51:12.553Z,2.15
2023-07-23T06:53:39.119Z,2.30
2023-07-23T06:56:08.070Z,2.20
2023-07-23T06:58:37.244Z,2.75
2023-07-23T07:01:05.209Z,2.33
2023-07-23T07:03:32.237Z,2.20
2023-07-23T07:06:00.553Z,2.70
2023-07-23T07:08:28.517Z,2.05
2023-07-23T07:11:03.196Z,1.92
2023-07-23T07:13:30.680Z,2.40
2023-07-23T07:15:57.875Z,2.33
2023-07-23T07:18:26.964Z,2.53
2023-07-23T07:21:00.993Z,3.00
2023-07-23T07:23:28.960Z,2.05
2023-07-23T07:25:56.930Z,1.90
2023-07-23T07:28:25.582Z,2.00
2023-07-23T07:30:52.337Z,3.00
2023-07-23T07:33:18.985Z,2.40
2023-07-23T07:35:45.645Z,1.95
2023-07-23T07:38:12.215Z,2.05
2023-07-23T07:40:41.657Z,1.85
2023-07-23T07:43:08.292Z,1.90
2023-07-23T07:45:34.948Z,2.10
2023-07-23T07:48:01.621Z,1.98
2023-07-23T07:50:28.300Z,2.00
2023-07-23T07:52:54.864Z,2.50
2023-07-23T07:55:21.411Z,2.30
2023-07-23T07:57:48.256Z,2.10
2023-07-23T08:00:15.525Z,2.40
2023-07-23T08:02:42.450Z,2.63
2023-07-23T08:05:09.979Z,2.90
2023-07-23T08:07:36.967Z,2.30
2023-07-23T08:10:03.942Z,2.20
2023-07-23T08:12:31.272Z,2.25
2023-07-23T08:14:59.580Z,1.88
2023-07-23T08:17:26.425Z,2.03
2023-07-23T08:19:53.270Z,2.42
2023-07-23T08:22:20.013Z,1.77
2023-07-23T08:24:47.105Z,2.70
2023-07-23T08:27:18.492Z,1.60
2023-07-23T08:29:48.219Z,2.40
2023-07-23T08:32:18.207Z,2.10
2023-07-23T08:34:45.304Z,2.03
2023-07-23T08:37:12.713Z,1.70
2023-07-23T08:39:39.523Z,2.40
2023-07-23T08:42:33.911Z,1.45
2023-07-23T08:45:19.110Z,2.00
2023-07-23T08:47:48.539Z,1.90
2023-07-23T08:50:15.580Z,2.28
2023-07-23T08:52:44.372Z,2.30
2023-07-23T08:57:39.673Z,1.88
2023-07-23T09:00:08.258Z,2.00
2023-07-23T09:02:35.542Z,2.10
2023-07-23T09:05:02.235Z,1.95
2023-07-23T09:07:29.029Z,1.80
2023-07-23T09:09:56.155Z,1.77
2023-07-23T09:12:22.817Z,1.65
2023-07-23T09:14:49.432Z,1.70
2023-07-23T09:17:20.770Z,1.70
2023-07-23T09:19:49.080Z,1.83
2023-07-23T09:22:18.422Z,2.00
2023-07-23T09:24:45.073Z,2.00
2023-07-23T09:27:12.420Z,1.75
2023-07-23T09:29:42.117Z,1.48
2023-07-23T09:32:29.077Z,1.88
2023-07-23T09:35:00.346Z,2.00
2023-07-23T09:37:30.142Z,1.63
2023-07-23T09:39:57.813Z,1.63
2023-07-23T09:42:25.196Z,1.67
2023-07-23T09:44:52.964Z,1.90
2023-07-23T09:47:26.725Z,1.60
2023-07-23T09:49:54.378Z,1.05
2023-07-23T09:52:27.460Z,1.45
2023-07-23T09:54:54.915Z,2.10
2023-07-23T09:57:23.039Z,1.80
2023-07-23T09:59:50.653Z,1.50
2023-07-23T10:02:18.525Z,1.40
2023-07-23T10:04:46.804Z,1.30
2023-07-23T10:07:15.240Z,1.70
2023-07-23T10:09:42.370Z,1.25
2023-07-23T10:12:09.238Z,1.65
2023-07-23T10:14:35.898Z,1.23
2023-07-23T10:17:03.560Z,1.50
2023-07-23T10:19:30.368Z,1.10
2023-07-23T10:21:57.449Z,1.30
2023-07-23T10:24:37.994Z,1.33
2023-07-23T10:27:11.324Z,1.40
2023-07-23T10:29:38.390Z,1.70
2023-07-23T10:32:28.007Z,1.60
2023-07-23T10:34:58.573Z,1.40
2023-07-23T10:37:25.787Z,1.52
2023-07-23T10:39:56.930Z,1.42
2023-07-23T10:42:29.672Z,1.75
2023-07-23T10:45:23.798Z,1.70
2023-07-23T10:47:52.627Z,1.45
2023-07-23T10:50:21.128Z,1.90
2023-07-23T10:52:51.037Z,1.90
2023-07-23T10:55:36.047Z,1.50
2023-07-23T10:58:11.548Z,2.17
2023-07-23T11:00:49.072Z,1.77
2023-07-23T11:03:18.258Z,1.63
2023-07-23T11:05:45.880Z,1.70
2023-07-23T11:08:25.008Z,2.30
2023-07-23T11:11:01.015Z,1.90
2023-07-23T11:13:33.588Z,1.80
2023-07-23T11:16:00.978Z,2.03
2023-07-23T11:18:32.153Z,1.52
2023-07-23T11:21:01.057Z,1.45
2023-07-23T11:23:28.986Z,2.08
2023-07-23T11:25:57.179Z,1.90
2023-07-23T11:28:24.212Z,2.00
2023-07-23T11:30:53.353Z,1.90
2023-07-23T11:33:21.493Z,1.83
2023-07-23T11:35:49.999Z,2.00
2023-07-23T11:38:16.605Z,2.60
2023-07-23T11:40:51.435Z,1.50
2023-07-23T11:43:18.088Z,1.92
2023-07-23T11:45:50.483Z,2.20
2023-07-23T11:48:18.789Z,1.80
2023-07-23T11:50:49.063Z,1.80
2023-07-23T11:53:31.886Z,2.00
2023-07-23T11:56:15.273Z,2.10
2023-07-23T11:58:42.589Z,2.08
2023-07-23T12:01:10.669Z,2.08
2023-07-23T12:03:43.174Z,2.10
2023-07-23T12:06:12.623Z,2.05
2023-07-23T12:08:39.896Z,1.98
2023-07-23T12:11:14.152Z,3.22
2023-07-23T12:13:57.290Z,2.53
2023-07-23T12:16:43.249Z,2.30
2023-07-23T12:19:11.394Z,8.88
2023-07-23T12:21:42.507Z,3.60
2023-07-23T12:24:21.860Z,4.57
2023-07-23T12:26:56.201Z,1.90
2023-07-23T12:29:24.836Z,2.13
2023-07-23T12:34:38.979Z,1.70
2023-07-23T12:37:06.197Z,2.05
2023-07-23T12:39:33.044Z,2.20
2023-07-23T12:42:00.084Z,2.08
2023-07-23T12:44:27.348Z,2.40
2023-07-23T12:46:55.032Z,2.17
2023-07-23T12:49:21.799Z,2.10
2023-07-23T12:51:48.581Z,2.25
2023-07-23T12:54:15.191Z,2.30
2023-07-23T12:56:42.322Z,1.98
2023-07-23T12:59:09.081Z,2.50
2023-07-23T13:01:36.573Z,2.63
2023-07-23T13:04:03.437Z,2.20
2023-07-23T13:06:31.631Z,2.10
2023-07-23T13:08:59.141Z,2.20
2023-07-23T13:11:25.666Z,2.42
2023-07-23T13:13:52.305Z,2.10
2023-07-23T13:16:21.533Z,2.20
2023-07-23T13:18:48.164Z,2.83
2023-07-23T13:21:15.073Z,2.97
2023-07-23T13:23:42.222Z,3.33
2023-07-23T13:26:09.188Z,2.33
2023-07-23T13:28:35.742Z,2.95
2023-07-23T13:31:02.593Z,3.30
2023-07-23T13:33:29.189Z,2.80
2023-07-23T13:35:55.772Z,2.40
2023-07-23T13:38:23.302Z,2.53
2023-07-23T13:40:50.470Z,2.58
2023-07-23T13:43:17.049Z,2.55
2023-07-23T13:45:44.656Z,2.55
2023-07-23T13:48:11.250Z,2.80
2023-07-23T13:50:49.658Z,2.58
2023-07-23T13:53:18.779Z,2.38
2023-07-23T13:55:46.009Z,2.80
2023-07-23T13:58:13.712Z,3.08
2023-07-23T14:00:44.709Z,2.78
2023-07-23T14:03:11.549Z,2.35
2023-07-23T14:05:38.317Z,2.50
2023-07-23T14:08:10.644Z,1.88
2023-07-23T14:10:38.307Z,2.00
2023-07-23T14:13:05.894Z,2.45
2023-07-23T14:15:32.761Z,2.38
2023-07-23T14:18:01.507Z,2.10
2023-07-23T14:20:28.557Z,2.20
2023-07-23T14:22:55.135Z,2.25
2023-07-23T14:25:21.836Z,2.42
2023-07-23T14:27:48.922Z,1.83
2023-07-23T14:30:17.965Z,2.55
2023-07-23T14:32:44.563Z,2.00
2023-07-23T14:35:11.163Z,2.10
2023-07-23T14:37:37.713Z,2.28
2023-07-23T14:40:06.144Z,1.90
2023-07-23T14:42:32.820Z,2.20
2023-07-23T14:44:59.447Z,1.55
2023-07-23T14:47:26.076Z,1.65
2023-07-23T14:49:52.680Z,1.63
2023-07-23T14:52:19.350Z,2.10
2023-07-23T14:54:45.913Z,1.52
2023-07-23T14:57:12.487Z,1.40
2023-07-23T14:59:39.080Z,1.42
2023-07-23T15:02:06.711Z,1.50
2023-07-23T15:04:33.378Z,1.75
2023-07-23T15:07:00.057Z,1.80
2023-07-23T15:09:27.134Z,1.70
2023-07-23T15:11:53.987Z,2.05
2023-07-23T15:14:20.801Z,1.48
2023-07-23T15:16:47.706Z,1.75
2023-07-23T15:19:14.534Z,2.10
2023-07-23T15:21:41.404Z,1.65
2023-07-23T15:24:09.635Z,1.92
2023-07-23T15:26:39.214Z,1.60
2023-07-23T15:29:07.166Z,2.00
2023-07-23T15:31:35.033Z,2.10
2023-07-23T15:34:02.458Z,1.90
2023-07-23T15:36:29.153Z,1.67
2023-07-23T15:38:55.741Z,2.15
2023-07-23T15:41:22.317Z,1.50
2023-07-23T15:43:49.081Z,2.83
2023-07-23T15:46:15.675Z,1.92
2023-07-23T15:48:42.382Z,2.40
2023-07-23T15:51:08.964Z,2.00
2023-07-23T15:53:35.614Z,2.30
2023-07-23T15:56:02.250Z,2.30
2023-07-23T15:58:29.190Z,2.47
2023-07-23T16:00:56.222Z,2.53
2023-07-23T16:03:23.185Z,2.20
2023-07-23T16:05:49.911Z,2.42
2023-07-23T16:08:16.531Z,2.03
2023-07-23T16:10:43.111Z,2.42
2023-07-23T16:13:09.718Z,2.45
2023-07-23T16:15:36.915Z,2.53
2023-07-23T16:18:04.661Z,2.45
2023-07-23T16:20:31.513Z,2.60
2023-07-23T16:22:58.129Z,2.60
2023-07-23T16:25:24.977Z,2.13
2023-07-23T16:27:51.655Z,2.53
2023-07-23T16:30:18.300Z,2.50
2023-07-23T16:32:45.126Z,3.17
2023-07-23T16:35:12.516Z,2.42
2023-07-23T16:37:42.061Z,2.50
2023-07-23T16:40:11.623Z,2.53
2023-07-23T16:42:43.033Z,2.42
2023-07-23T16:45:11.174Z,2.42
2023-07-23T16:47:37.830Z,1.77
2023-07-23T16:50:06.240Z,2.60
2023-07-23T16:52:32.812Z,2.00
2023-07-23T16:54:59.570Z,2.05
2023-07-23T16:57:26.586Z,1.65
2023-07-23T16:59:53.334Z,1.63
2023-07-23T17:02:20.049Z,1.70
2023-07-23T17:04:46.807Z,1.90
2023-07-23T17:07:13.557Z,1.98
2023-07-23T17:09:40.528Z,1.67
2023-07-23T17:12:07.494Z,2.03
2023-07-23T17:14:34.279Z,1.67
2023-07-23T17:17:02.926Z,1.63
2023-07-23T17:21:56.302Z,1.90
2023-07-23T17:24:23.071Z,1.70
2023-07-23T17:26:49.767Z,1.67
2023-07-23T17:29:16.371Z,2.60
2023-07-23T17:31:42.969Z,1.60
2023-07-23T17:34:09.645Z,2.00
2023-07-23T17:36:36.381Z,1.65
2023-07-23T17:39:03.021Z,1.80
2023-07-23T17:41:29.587Z,1.77
2023-07-23T17:43:56.145Z,1.40
2023-07-23T17:46:22.978Z,1.58
2023-07-23T17:48:49.778Z,1.63
2023-07-23T17:51:16.508Z,1.50
2023-07-23T17:53:43.132Z,1.70
2023-07-23T17:56:09.754Z,1.60
2023-07-23T17:58:36.358Z,1.60
2023-07-23T18:01:09.714Z,2.63
2023-07-23T18:03:39.405Z,2.08
2023-07-23T18:06:06.031Z,1.52
2023-07-23T18:08:32.804Z,1.88
2023-07-23T18:10:59.414Z,1.70
2023-07-23T18:13:27.736Z,1.50
2023-07-23T18:15:54.575Z,1.58
2023-07-23T18:18:21.184Z,1.40
2023-07-23T18:20:47.778Z,1.45
2023-07-23T18:23:14.412Z,1.65
2023-07-23T18:25:54.298Z,1.45
2023-07-23T18:28:25.756Z,1.60
2023-07-23T18:31:02.063Z,2.03
2023-07-23T18:33:28.713Z,1.60
2023-07-23T18:35:55.395Z,1.65
2023-07-23T18:38:22.115Z,1.52
2023-07-23T18:40:58.625Z,1.60
2023-07-23T18:43:25.278Z,1.67
2023-07-23T18:45:52.429Z,2.00
2023-07-23T18:48:19.115Z,1.90
2023-07-23T18:50:45.817Z,1.67
2023-07-23T18:53:12.595Z,2.10
2023-07-23T18:55:39.291Z,1.85
2023-07-23T18:58:05.950Z,2.00
2023-07-23T19:00:36.057Z,2.00
2023-07-23T19:03:04.603Z,1.75
2023-07-23T19:05:31.483Z,2.00
2023-07-23T19:07:58.112Z,2.33
2023-07-23T19:10:24.818Z,1.70
2023-07-23T19:12:51.524Z,2.20
2023-07-23T19:15:18.228Z,3.63
2023-07-23T19:17:45.058Z,3.38
2023-07-23T19:20:11.816Z,2.67
2023-07-23T19:22:38.877Z,2.92
2023-07-23T19:25:05.833Z,2.38
2023-07-23T19:27:32.883Z,2.03
2023-07-23T19:29:59.584Z,2.70
2023-07-23T19:32:26.374Z,2.50
2023-07-23T19:34:52.980Z,2.58
2023-07-23T19:37:20.339Z,3.00
2023-07-23T19:39:47.999Z,2.58
2023-07-23T19:42:15.059Z,2.60
2023-07-23T19:44:42.705Z,3.05
2023-07-23T19:47:10.429Z,2.80
2023-07-23T19:49:37.321Z,3.88
2023-07-23T19:52:04.187Z,2.38
2023-07-23T19:54:30.814Z,2.70
2023-07-23T19:56:57.578Z,3.47
2023-07-23T19:59:25.995Z,2.90
2023-07-23T20:01:53.130Z,4.18
2023-07-23T20:04:20.232Z,2.97
2023-07-23T20:06:47.241Z,3.13
2023-07-23T20:09:13.888Z,2.97
2023-07-23T20:11:40.541Z,2.67
2023-07-23T20:14:07.176Z,2.40
2023-07-23T20:16:34.289Z,2.20
2023-07-23T20:19:01.235Z,3.88
2023-07-23T20:21:41.726Z,2.17
2023-07-23T20:24:13.670Z,2.67
2023-07-23T20:26:40.409Z,2.50
2023-07-23T20:29:07.222Z,2.42
2023-07-23T20:31:34.202Z,2.92
2023-07-23T20:34:01.078Z,2.03
2023-07-23T20:36:28.282Z,2.28
2023-07-23T20:38:55.522Z,2.08
2023-07-23T20:41:22.625Z,2.30
2023-07-23T20:43:49.351Z,2.38
2023-07-23T20:46:16.178Z,2.40
2023-07-23T20:48:43.538Z,2.55
2023-07-23T20:51:10.276Z,1.92
2023-07-23T20:53:36.931Z,2.78
2023-07-23T20:56:03.613Z,4.97
2023-07-23T20:58:30.248Z,3.47
2023-07-23T21:00:57.355Z,4.18
2023-07-23T21:03:24.092Z,2.45
2023-07-23T21:05:50.747Z,2.17
2023-07-23T21:08:17.331Z,2.22
2023-07-23T21:10:43.892Z,2.33
2023-07-23T21:13:10.951Z,2.47
2023-07-23T21:15:37.688Z,2.20
2023-07-23T21:18:04.339Z,2.95
2023-07-23T21:20:31.080Z,2.50
2023-07-23T21:22:57.665Z,2.17
2023-07-23T21:25:24.319Z,2.63
2023-07-23T21:27:50.959Z,2.72
2023-07-23T21:30:17.621Z,2.40
2023-07-23T21:32:44.466Z,2.53
2023-07-23T21:35:13.265Z,2.78
2023-07-23T21:37:40.181Z,2.50
2023-07-23T21:40:07.730Z,2.08
2023-07-23T21:42:34.389Z,2.67
2023-07-23T21:45:01.008Z,2.25
2023-07-23T21:47:27.863Z,3.03
2023-07-23T21:49:55.213Z,3.30
2023-07-23T21:52:22.681Z,3.78
2023-07-23T21:54:49.393Z,3.28
2023-07-23T21:57:16.229Z,4.90
2023-07-23T21:59:43.106Z,2.90
2023-07-23T22:02:09.801Z,2.58
2023-07-23T22:04:37.933Z,2.80
2023-07-23T22:07:04.920Z,3.20
2023-07-23T22:09:31.671Z,2.95
2023-07-23T22:11:58.271Z,2.95
2023-07-23T22:14:28.241Z,3.10
2023-07-23T22:16:55.168Z,3.03
2023-07-23T22:19:21.869Z,2.90
2023-07-23T22:21:48.618Z,2.47
2023-07-23T22:24:15.236Z,2.75
2023-07-23T22:26:41.875Z,2.70
2023-07-23T22:29:08.482Z,3.28
2023-07-23T22:31:35.134Z,3.00
2023-07-23T22:34:02.284Z,2.70
2023-07-23T22:36:29.269Z,2.25
2023-07-23T22:38:56.183Z,2.70
2023-07-23T22:41:22.828Z,2.40
2023-07-23T22:43:55.960Z,2.40
2023-07-23T22:46:25.329Z,2.33
2023-07-23T22:48:52.428Z,2.20
2023-07-23T22:51:19.059Z,2.67
2023-07-23T22:53:45.601Z,2.47
2023-07-23T22:56:16.965Z,2.50
2023-07-23T22:58:50.059Z,2.38
2023-07-23T23:01:18.651Z,2.47
2023-07-23T23:03:45.283Z,2.60
2023-07-23T23:06:11.882Z,2.00
2023-07-23T23:08:38.475Z,2.50
2023-07-23T23:11:05.386Z,2.90
2023-07-23T23:13:31.963Z,2.58
2023-07-23T23:16:02.247Z,2.58
2023-07-23T23:18:28.990Z,2.22
2023-07-23T23:20:55.646Z,2.22
2023-07-23T23:23:22.311Z,2.00
2023-07-23T23:25:48.893Z,2.40
2023-07-23T23:28:15.493Z,2.30
2023-07-23T23:30:42.062Z,2.28
2023-07-23T23:33:08.760Z,2.50
2023-07-23T23:35:35.486Z,2.38
2023-07-23T23:38:02.075Z,2.22
2023-07-23T23:40:28.688Z,3.05
2023-07-23T23:42:55.354Z,2.50
2023-07-23T23:45:24.307Z,2.67
2023-07-23T23:47:51.165Z,4.50
2023-07-23T23:50:17.923Z,3.22
2023-07-23T23:52:45.697Z,3.03
2023-07-23T23:55:12.282Z,3.33
2023-07-23T23:57:38.841Z,2.63
